Terminal Aerodrome Forecast
Issued by NWS

Home | Current Version | Previous Version | Text Only | Print | Product List | Glossary On
Versions: 1 2 3 4 5 6 7 8 9 10 11 12 13 14 15 16 17 18 19 20 21 22 23 24 25 26
000
FTUS41 KOKX 101100
TAFHPN
TAF
KHPN 101120Z 1012/1112 02007KT P6SM SCT100 BKN250
     FM101800 07006KT P6SM SCT050 BKN250
     FM102000 12006KT P6SM SCT050 SCT250
     FM110000 VRB03KT P6SM FEW050 SCT150
     FM110400 VRB03KT P6SM FEW008 FEW050 SCT150
      AMD NOT SKED=

USA.gov is the U.S. government's official web portal to all federal, state and local government web resources and services.